フランクフルト の空港の天気 - METARとTAF

フランクフルト国際空港 ( EDDF / FRA ) - ドイツ フランクフルト・アム・マイン
飛行場実況気象(Metar)
観測時間03/28 23:20 CEST (03/28 21:20 UTC)
風向・風速西南西 6m/s
視程10km以上
天気現象
なし
気温16℃
湿度51%
気圧1023hPa
METAREDDF 282120Z 24012KT CAVOK 16/06 Q1023 NOSIG
過去の天気等 Google飛行場航空写真 Wunderground天気予報

過去48時間のMETAR

飛行場予報(TAF)
発表時間: 3/28 19:00 CEST (3/28 17:00 UTC)
予報対象時間: 28日20時 CEST ~ 30日2時 CEST
風向・風速西南西 4m/s
視程10km以上
なし
TAF EDDF 281700Z 2818/2924 24007KT CAVOK